Valley Stream, New York
Current Conditions -  °F | °C
As of 12:51 AM on Sunday 23 Nov 2014 (Local Time) from KJFK Reporting Station
Broken Clouds Broken Clouds  
Wind Chill: 37°   Ceiling: 12000
Heat Index: 44°   Visibility: 10mi
Dew Point: 26°   Wind: 15mph
Humidity: 49%   Direction: 240°WSW
Pressure: 30.21"   Gusts: NA
Location:  40.66°N, 73.71°W
Report Text: KJFK 230551Z 24013KT 10SM SCT090 BKN120 BKN250 07/M03 A3021 RMK AO2 SLP230 T00671033 10067 20056 58010 $
Loading
Personal Weather Stations






























Interactive Weather Map New forecast layout! Learn more

10-Day Weather Forecast

Advertisements
Track Severe Weather on mobile